Time;durP1;ratioP1;P1;durP2;ratioP2;P2;SDS_P1;SDS_P2;PMS_P1;PMS_P2;Temp;Humidity;BMP_temperature;BMP_pressure;BME280_temperature;BME280_humidity;BME280_pressure;Samples;Min_cycle;Max_cycle;Signal;HPM_P1;HPM_P2
2023/07/10 00:01:44;;;;;;;15.10;13.40;;;;;;;28.78;38.86;97621.50;5025166;28;20470;-72
2023/07/10 00:04:17;;;;;;;11.30;10.10;;;;;;;28.79;38.93;97609.63;5010401;28;20789;-71
2023/07/10 00:06:43;;;;;;;11.13;7.10;;;;;;;28.78;39.28;97608.00;5012964;28;20286;-70
2023/07/10 00:09:08;;;;;;;14.93;11.53;;;;;;;28.79;39.38;97604.25;5010775;28;20459;-71
2023/07/10 00:11:34;;;;;;;6.97;6.27;;;;;;;28.81;39.03;97604.81;5010789;28;20219;-72
2023/07/10 00:13:59;;;;;;;9.10;7.83;;;;;;;28.73;39.30;97602.59;5009450;28;20188;-70
2023/07/10 00:16:26;;;;;;;11.13;8.10;;;;;;;28.65;39.14;97596.59;5010593;28;20295;-72
2023/07/10 00:18:53;;;;;;;12.10;8.93;;;;;;;28.58;39.74;97605.97;5010713;28;20185;-70
2023/07/10 00:21:19;;;;;;;12.20;9.10;;;;;;;28.53;39.85;97606.75;5010605;28;20426;-71
2023/07/10 00:23:45;;;;;;;9.40;6.00;;;;;;;28.53;39.56;97603.25;5010467;28;20789;-70
2023/07/10 00:26:19;;;;;;;8.40;7.50;;;;;;;28.52;39.69;97605.13;5019625;28;20243;-71
2023/07/10 00:28:44;;;;;;;13.20;8.20;;;;;;;28.49;39.81;97617.25;5011289;28;20443;-71
2023/07/10 00:31:12;;;;;;;6.00;5.10;;;;;;;28.52;39.54;97629.38;5010294;28;20425;-70
2023/07/10 00:33:38;;;;;;;6.87;4.40;;;;;;;28.40;38.67;97623.38;5024346;28;20188;-72
2023/07/10 00:36:26;;;;;;;9.77;5.17;;;;;;;28.36;38.68;97626.56;5012153;28;20528;-71
2023/07/10 00:38:51;;;;;;;6.93;5.27;;;;;;;28.36;37.87;97621.19;5007625;28;20246;-70
2023/07/10 00:41:17;;;;;;;9.87;4.83;;;;;;;28.39;37.41;97608.28;5011244;28;20424;-70
2023/07/10 00:43:48;;;;;;;9.23;7.37;;;;;;;28.43;37.51;97609.38;5010783;28;20208;-71
2023/07/10 00:46:23;;;;;;;15.20;11.50;;;;;;;28.48;37.86;97606.72;5015597;28;20196;-72
2023/07/10 00:48:56;;;;;;;8.47;6.80;;;;;;;28.50;37.74;97610.78;5014196;28;20436;-71
2023/07/10 00:51:26;;;;;;;7.87;5.70;;;;;;;28.54;37.78;97624.56;5013622;28;20420;-71
2023/07/10 00:53:52;;;;;;;7.00;4.87;;;;;;;28.46;38.70;97633.94;5009207;28;20473;-70
2023/07/10 00:56:18;;;;;;;11.57;6.80;;;;;;;28.46;38.95;97638.53;5012624;28;20469;-72
2023/07/10 00:58:46;;;;;;;10.70;8.40;;;;;;;28.46;39.23;97644.72;5018007;28;20192;-70
2023/07/10 01:01:15;;;;;;;11.20;9.80;;;;;;;28.44;38.64;97644.16;5008495;28;20503;-70
2023/07/10 01:03:42;;;;;;;9.43;7.60;;;;;;;28.47;38.66;97656.31;5015099;28;20416;-72
2023/07/10 01:06:26;;;;;;;11.90;9.60;;;;;;;28.44;38.48;97664.91;5009680;28;20492;-70
2023/07/10 01:09:02;;;;;;;10.13;6.20;;;;;;;28.43;38.60;97677.56;5019565;28;20418;-71
2023/07/10 01:11:28;;;;;;;10.90;6.67;;;;;;;28.39;38.88;97678.34;5006467;28;20498;-70
2023/07/10 01:13:54;;;;;;;12.37;5.90;;;;;;;28.29;38.77;97682.56;5010547;28;20975;-72
2023/07/10 01:16:21;;;;;;;11.17;7.70;;;;;;;28.28;38.89;97685.53;5009171;28;20689;-71
2023/07/10 01:18:48;;;;;;;16.50;11.60;;;;;;;28.25;39.22;97691.44;5008598;28;20444;-71
2023/07/10 01:21:31;;;;;;;8.37;5.80;;;;;;;28.21;38.74;97699.22;5008214;28;20984;-71
2023/07/10 01:23:58;;;;;;;8.33;5.20;;;;;;;28.25;38.72;97703.00;5012383;28;20424;-70
2023/07/10 01:26:24;;;;;;;7.83;6.40;;;;;;;28.24;39.08;97695.19;5008972;28;20932;-71
2023/07/10 01:28:50;;;;;;;8.43;5.87;;;;;;;28.24;39.00;97690.59;5012082;28;20507;-71
2023/07/10 01:31:19;;;;;;;7.50;5.80;;;;;;;28.24;39.36;97697.88;5017663;28;20219;-72
2023/07/10 01:33:47;;;;;;;7.93;6.53;;;;;;;28.22;39.57;97698.16;5014522;28;20441;-72
2023/07/10 01:36:15;;;;;;;8.50;5.50;;;;;;;28.16;39.63;97699.16;5010065;28;20467;-70
2023/07/10 01:38:49;;;;;;;10.03;8.20;;;;;;;28.17;39.45;97704.28;5008415;28;20423;-71
2023/07/10 01:41:28;;;;;;;6.33;5.30;;;;;;;28.11;39.83;97704.47;5010876;28;20427;-70
2023/07/10 01:43:54;;;;;;;6.27;4.80;;;;;;;28.09;39.94;97699.34;5005683;28;20423;-70
2023/07/10 01:46:22;;;;;;;6.77;5.70;;;;;;;28.00;40.39;97690.88;5009322;28;20498;-70
2023/07/10 01:48:52;;;;;;;9.33;5.30;;;;;;;27.92;40.15;97682.44;5009313;28;20637;-70
2023/07/10 01:51:19;;;;;;;7.20;4.70;;;;;;;27.79;40.16;97679.06;5013179;28;20415;-71
2023/07/10 01:53:45;;;;;;;8.90;5.10;;;;;;;27.80;40.23;97674.53;5007980;28;20449;-73
2023/07/10 01:56:11;;;;;;;7.40;4.93;;;;;;;27.81;40.25;97679.66;5015146;28;20458;-71
2023/07/10 01:58:37;;;;;;;7.40;5.03;;;;;;;27.85;40.08;97667.31;5008549;28;20182;-71
2023/07/10 02:01:02;;;;;;;5.73;5.00;;;;;;;27.88;40.18;97671.38;5016562;28;21037;-71
2023/07/10 02:03:27;;;;;;;9.10;6.63;;;;;;;27.86;40.14;97671.63;5014085;28;20282;-71
2023/07/10 02:05:53;;;;;;;6.70;5.93;;;;;;;27.91;40.19;97670.88;5009464;28;20228;-71
2023/07/10 02:08:18;;;;;;;5.40;4.77;;;;;;;27.91;40.16;97676.25;5010515;28;20215;-71
2023/07/10 02:10:44;;;;;;;6.47;5.20;;;;;;;27.89;40.38;97681.91;5011823;28;20216;-71
2023/07/10 02:13:09;;;;;;;7.13;4.90;;;;;;;27.90;40.40;97677.31;5007962;28;20184;-72
2023/07/10 02:15:35;;;;;;;5.73;5.20;;;;;;;27.83;40.43;97679.41;5008758;28;20230;-71
2023/07/10 02:18:00;;;;;;;10.00;5.67;;;;;;;27.80;40.46;97669.13;5016280;28;20229;-71
2023/07/10 02:20:26;;;;;;;8.70;5.90;;;;;;;27.82;40.75;97670.50;5014151;28;20279;-71
2023/07/10 02:22:51;;;;;;;7.23;5.73;;;;;;;27.82;40.83;97661.63;5013313;28;20214;-71
2023/07/10 02:25:17;;;;;;;7.00;5.40;;;;;;;27.84;40.95;97657.59;5008013;28;20211;-71
2023/07/10 02:27:42;;;;;;;9.40;6.50;;;;;;;27.82;41.18;97656.25;5010008;28;20759;-71
2023/07/10 02:30:08;;;;;;;11.90;6.00;;;;;;;27.83;41.41;97652.47;5005480;28;20787;-71
2023/07/10 02:32:34;;;;;;;12.00;8.97;;;;;;;27.88;41.23;97664.13;5011457;28;20184;-70
2023/07/10 02:34:59;;;;;;;8.80;7.03;;;;;;;27.92;41.39;97663.59;5021985;28;20429;-72
2023/07/10 02:37:24;;;;;;;6.37;5.27;;;;;;;27.94;41.39;97683.84;5008134;28;20240;-70
2023/07/10 02:39:50;;;;;;;7.40;5.37;;;;;;;27.82;41.52;97686.66;5008785;28;20667;-71
2023/07/10 02:42:15;;;;;;;7.30;5.40;;;;;;;27.81;41.74;97705.78;5018495;28;20290;-72
2023/07/10 02:44:41;;;;;;;7.60;5.37;;;;;;;27.86;41.75;97711.19;5008654;28;20250;-71
2023/07/10 02:47:06;;;;;;;7.83;6.20;;;;;;;27.93;41.94;97719.06;5008841;28;20287;-70
2023/07/10 02:49:32;;;;;;;11.20;5.70;;;;;;;27.94;41.97;97709.94;5007639;28;20668;-71
2023/07/10 02:51:57;;;;;;;5.40;4.87;;;;;;;27.90;42.33;97686.22;5015502;28;20605;-71
2023/07/10 02:54:22;;;;;;;5.10;4.30;;;;;;;27.81;42.26;97671.56;5017352;28;20231;-70
2023/07/10 02:56:48;;;;;;;8.60;5.33;;;;;;;27.81;42.61;97681.53;5008919;28;20932;-71
2023/07/10 02:59:13;;;;;;;7.17;5.50;;;;;;;27.71;42.97;97715.38;5007790;28;20900;-72
2023/07/10 03:01:39;;;;;;;7.43;5.60;;;;;;;27.65;43.73;97721.75;5010025;28;20822;-70
2023/07/10 03:04:05;;;;;;;7.17;4.93;;;;;;;27.64;43.88;97722.81;5011952;28;20270;-71
2023/07/10 03:06:30;;;;;;;6.60;5.17;;;;;;;27.66;44.01;97727.94;5007876;28;20494;-71
2023/07/10 03:08:58;;;;;;;8.43;4.83;;;;;;;27.67;44.00;97724.16;5013025;28;20189;-71
2023/07/10 03:11:24;;;;;;;9.50;6.00;;;;;;;27.67;44.84;97724.16;5011893;28;20188;-71
2023/07/10 03:13:49;;;;;;;8.73;4.90;;;;;;;27.67;44.76;97722.31;5012138;28;21203;-71
2023/07/10 03:16:15;;;;;;;8.23;6.10;;;;;;;27.69;44.90;97728.25;5010536;28;20211;-72
2023/07/10 03:18:40;;;;;;;7.97;5.93;;;;;;;27.71;44.76;97736.06;5003515;28;20184;-71
2023/07/10 03:21:07;;;;;;;11.33;5.57;;;;;;;27.71;44.73;97736.91;5009707;28;20430;-70
2023/07/10 03:23:33;;;;;;;9.60;5.40;;;;;;;27.72;44.74;97730.41;4999304;28;20180;-72
2023/07/10 03:25:58;;;;;;;9.87;6.03;;;;;;;27.78;44.81;97725.13;5018746;28;20524;-71
2023/07/10 03:28:24;;;;;;;7.60;5.10;;;;;;;27.74;44.76;97725.59;5020804;28;20382;-70
2023/07/10 03:30:50;;;;;;;6.50;5.17;;;;;;;27.73;44.92;97717.78;5014102;28;20188;-71
2023/07/10 03:33:17;;;;;;;5.50;5.00;;;;;;;27.67;44.93;97718.78;5011558;28;20650;-70
2023/07/10 03:35:48;;;;;;;11.33;6.10;;;;;;;27.63;44.95;97731.94;5016821;28;20208;-70
2023/07/10 03:38:14;;;;;;;7.37;5.33;;;;;;;27.49;45.44;97730.69;5019608;28;20438;-70
2023/07/10 03:40:48;;;;;;;7.60;5.33;;;;;;;27.49;45.53;97744.13;5012656;28;20419;-70
2023/07/10 03:43:14;;;;;;;7.87;5.73;;;;;;;27.50;45.42;97741.22;5012844;28;20438;-70
2023/07/10 03:45:41;;;;;;;10.10;5.73;;;;;;;27.55;45.69;97741.25;5011640;28;20510;-70
2023/07/10 03:48:06;;;;;;;8.47;5.17;;;;;;;27.64;45.74;97747.03;5014907;28;20238;-71
2023/07/10 03:50:34;;;;;;;9.47;5.13;;;;;;;27.67;45.23;97746.53;5018743;28;20435;-72
2023/07/10 03:52:59;;;;;;;10.03;5.53;;;;;;;27.70;45.23;97755.97;5011246;28;20218;-70
2023/07/10 03:55:25;;;;;;;7.00;4.87;;;;;;;27.71;45.42;97750.38;5012555;28;20443;-71
2023/07/10 03:57:50;;;;;;;8.63;5.80;;;;;;;27.58;46.04;97765.00;5018967;28;20310;-72
2023/07/10 04:00:16;;;;;;;14.10;5.70;;;;;;;27.51;46.16;97768.94;5014469;28;20223;-72
2023/07/10 04:02:41;;;;;;;11.40;5.63;;;;;;;27.51;46.31;97775.13;5008198;28;20707;-71
2023/07/10 04:05:07;;;;;;;7.90;5.63;;;;;;;27.54;46.26;97774.63;5010286;28;20645;-71
2023/07/10 04:07:32;;;;;;;6.30;5.07;;;;;;;27.57;45.97;97776.81;5017733;28;20315;-70
2023/07/10 04:09:57;;;;;;;10.00;5.10;;;;;;;27.64;45.48;97773.94;5012664;28;20189;-71
2023/07/10 04:12:23;;;;;;;9.00;5.23;;;;;;;27.67;44.72;97768.06;5011076;28;20267;-70
2023/07/10 04:14:48;;;;;;;9.80;5.30;;;;;;;27.65;44.75;97783.66;5012657;28;20214;-69
2023/07/10 04:17:14;;;;;;;9.40;5.87;;;;;;;27.67;44.71;97788.78;5018315;28;20299;-70
2023/07/10 04:19:40;;;;;;;10.90;5.20;;;;;;;27.65;44.51;97780.97;5014563;28;20199;-70
2023/07/10 04:22:05;;;;;;;6.20;4.80;;;;;;;27.68;44.35;97791.22;5011348;28;20188;-70
2023/07/10 04:24:31;;;;;;;10.47;5.50;;;;;;;27.73;44.17;97785.09;5009490;28;20440;-70
2023/07/10 04:26:56;;;;;;;9.53;5.40;;;;;;;27.79;44.38;97794.06;5010565;28;20299;-72
2023/07/10 04:29:22;;;;;;;7.47;6.30;;;;;;;27.84;44.33;97797.63;5021139;28;20275;-72
2023/07/10 04:31:47;;;;;;;10.50;5.97;;;;;;;27.89;44.16;97781.53;5011260;28;20789;-71
2023/07/10 04:34:13;;;;;;;7.60;5.20;;;;;;;27.94;44.33;97790.72;5010207;28;20795;-71
2023/07/10 04:36:38;;;;;;;9.53;6.17;;;;;;;27.97;44.20;97793.75;5006189;28;20217;-72
2023/07/10 04:39:04;;;;;;;12.03;5.20;;;;;;;27.97;44.09;97799.13;5018494;28;20672;-71
2023/07/10 04:41:29;;;;;;;10.00;5.50;;;;;;;27.97;44.39;97793.75;5011932;28;20191;-71
2023/07/10 04:43:55;;;;;;;12.60;5.67;;;;;;;27.98;44.23;97784.59;5017679;28;20192;-72
2023/07/10 04:46:21;;;;;;;10.30;5.80;;;;;;;28.00;44.39;97782.44;5009531;28;20770;-72
2023/07/10 04:48:47;;;;;;;10.30;5.73;;;;;;;28.04;43.88;97777.38;5011829;28;20188;-72
2023/07/10 04:51:14;;;;;;;9.93;5.77;;;;;;;28.05;44.40;97784.38;5015900;28;20231;-72
2023/07/10 04:53:39;;;;;;;10.83;6.17;;;;;;;27.98;44.95;97781.09;5014669;28;20431;-72
2023/07/10 04:56:06;;;;;;;6.77;5.40;;;;;;;27.85;45.45;97782.28;4998209;28;20488;-72
2023/07/10 04:58:58;;;;;;;9.60;5.83;;;;;;;27.75;45.77;97791.84;5019595;28;20184;-72
2023/07/10 05:01:26;;;;;;;11.53;5.67;;;;;;;27.59;46.40;97819.66;5007040;28;20442;-72
2023/07/10 05:03:52;;;;;;;8.53;5.37;;;;;;;27.55;45.89;97850.81;5014956;28;20985;-71
2023/07/10 05:06:18;;;;;;;7.40;5.10;;;;;;;27.64;45.29;97854.69;5016124;28;20443;-72
2023/07/10 05:08:44;;;;;;;18.43;5.90;;;;;;;27.73;45.19;97860.47;5015447;28;20759;-71
2023/07/10 05:11:09;;;;;;;9.70;5.70;;;;;;;27.79;45.28;97864.84;5012903;28;20495;-72
2023/07/10 05:13:35;;;;;;;12.00;5.40;;;;;;;27.84;45.03;97853.38;5009003;28;20429;-72
2023/07/10 05:16:00;;;;;;;10.47;6.30;;;;;;;27.95;44.58;97835.44;5009358;28;20236;-73
2023/07/10 05:18:27;;;;;;;13.93;5.40;;;;;;;28.03;44.68;97827.75;5008458;28;20184;-71
2023/07/10 05:20:53;;;;;;;9.30;5.30;;;;;;;28.11;45.21;97820.31;5008729;28;20188;-71
2023/07/10 05:23:18;;;;;;;9.87;5.30;;;;;;;28.17;45.67;97813.94;5010465;28;20504;-72
2023/07/10 05:25:54;;;;;;;9.23;5.40;;;;;;;28.21;45.83;97812.38;5007579;28;20443;-72
2023/07/10 05:28:20;;;;;;;7.77;5.00;;;;;;;28.27;45.90;97819.44;5005858;28;20591;-72
2023/07/10 05:30:45;;;;;;;11.43;5.70;;;;;;;28.36;45.69;97815.22;5009176;28;20562;-71
2023/07/10 05:33:11;;;;;;;9.73;5.63;;;;;;;28.46;45.91;97806.41;5013556;28;20677;-73
2023/07/10 05:35:36;;;;;;;13.63;5.40;;;;;;;28.55;45.68;97800.56;5010619;28;20259;-73
2023/07/10 05:38:02;;;;;;;7.33;5.57;;;;;;;28.64;44.92;97805.25;5007831;28;20279;-73
2023/07/10 05:40:27;;;;;;;9.50;4.97;;;;;;;28.74;44.95;97825.31;5009040;28;20712;-71
2023/07/10 05:42:52;;;;;;;18.73;5.63;;;;;;;28.81;44.10;97834.03;5012522;28;20231;-72
2023/07/10 05:45:18;;;;;;;11.73;5.00;;;;;;;28.84;43.93;97849.69;5009313;28;20180;-72
2023/07/10 05:47:43;;;;;;;10.70;5.57;;;;;;;28.91;43.57;97855.69;5008194;28;20200;-71
2023/07/10 05:50:09;;;;;;;15.13;5.37;;;;;;;28.95;43.30;97862.19;5009692;28;20223;-73
2023/07/10 05:52:34;;;;;;;10.67;5.30;;;;;;;28.94;42.41;97873.22;5008582;28;20191;-72
2023/07/10 05:55:00;;;;;;;9.43;5.67;;;;;;;28.96;42.47;97890.81;5009561;28;20563;-72
2023/07/10 05:57:25;;;;;;;10.63;5.40;;;;;;;29.11;42.12;97889.31;5013337;28;20215;-72
2023/07/10 05:59:51;;;;;;;5.90;5.30;;;;;;;29.10;42.09;97879.59;5008940;28;21023;-71
2023/07/10 06:02:16;;;;;;;7.37;5.03;;;;;;;29.15;41.87;97882.31;5016305;28;20188;-73
2023/07/10 06:04:42;;;;;;;8.70;5.43;;;;;;;29.26;41.45;97877.81;5011081;28;20242;-72
2023/07/10 06:07:07;;;;;;;10.13;5.13;;;;;;;29.33;41.44;97872.22;5009207;28;20228;-72
2023/07/10 06:09:33;;;;;;;10.40;5.50;;;;;;;29.48;41.03;97869.66;5010397;28;20657;-72
2023/07/10 06:11:58;;;;;;;5.07;4.50;;;;;;;29.62;41.02;97863.78;5014947;28;20219;-71
2023/07/10 06:14:24;;;;;;;8.23;4.70;;;;;;;29.78;40.89;97867.41;5009014;28;20229;-72
2023/07/10 06:16:49;;;;;;;6.87;4.90;;;;;;;29.89;40.05;97864.47;5008268;28;20220;-72
2023/07/10 06:19:16;;;;;;;10.27;5.07;;;;;;;30.02;40.18;97865.09;5011790;28;20665;-72
2023/07/10 06:21:42;;;;;;;9.87;4.50;;;;;;;30.14;39.85;97864.91;5016300;28;20184;-71
2023/07/10 06:24:07;;;;;;;10.70;5.13;;;;;;;30.26;39.63;97861.97;5015418;28;20458;-73
2023/07/10 06:26:33;;;;;;;7.00;4.93;;;;;;;30.39;39.58;97861.47;5007055;28;20216;-71
2023/07/10 06:28:58;;;;;;;7.10;5.50;;;;;;;30.48;39.35;97853.66;5009197;28;20736;-72
2023/07/10 06:31:23;;;;;;;10.57;5.33;;;;;;;30.49;39.36;97850.69;5013419;28;20211;-72
2023/07/10 06:33:50;;;;;;;10.37;5.13;;;;;;;30.50;39.52;97846.88;5011777;28;20180;-73
2023/07/10 06:36:16;;;;;;;7.67;4.50;;;;;;;30.59;39.61;97843.72;5013509;28;20211;-72
2023/07/10 06:38:41;;;;;;;9.67;4.43;;;;;;;30.68;39.47;97825.88;5009430;28;20436;-71
2023/07/10 06:41:07;;;;;;;5.90;4.23;;;;;;;30.79;39.49;97818.59;5009349;28;20213;-71
2023/07/10 06:43:33;;;;;;;10.07;4.60;;;;;;;30.93;39.22;97826.97;5021648;28;20180;-72
2023/07/10 06:45:58;;;;;;;5.50;4.43;;;;;;;31.07;39.25;97830.75;5005662;28;20444;-72
2023/07/10 06:48:24;;;;;;;17.63;5.00;;;;;;;31.23;39.06;97830.78;5016657;28;20238;-73
2023/07/10 06:50:53;;;;;;;9.83;4.60;;;;;;;31.38;38.29;97825.34;5007765;28;20307;-74
2023/07/10 06:53:19;;;;;;;8.63;4.60;;;;;;;31.53;38.31;97843.47;5015144;28;20179;-73
2023/07/10 06:55:50;;;;;;;11.20;4.37;;;;;;;31.59;38.00;97852.41;5011848;28;20508;-73
2023/07/10 06:58:16;;;;;;;11.90;5.33;;;;;;;31.63;37.87;97856.16;5015256;28;20666;-73
2023/07/10 07:00:42;;;;;;;11.70;4.57;;;;;;;31.68;38.13;97850.75;5019104;28;20784;-72
2023/07/10 07:03:09;;;;;;;9.80;4.60;;;;;;;31.70;37.76;97851.31;5025366;28;20438;-73
2023/07/10 07:05:34;;;;;;;8.30;4.60;;;;;;;31.80;37.68;97864.03;5018028;28;20176;-73
2023/07/10 07:07:59;;;;;;;7.23;4.20;;;;;;;31.96;37.55;97866.66;5022369;28;20425;-74
2023/07/10 07:10:25;;;;;;;4.83;4.23;;;;;;;31.99;37.62;97872.38;5019159;28;20245;-72
2023/07/10 07:12:50;;;;;;;9.60;4.07;;;;;;;31.99;37.65;97864.22;5011901;28;20195;-72
2023/07/10 07:15:16;;;;;;;7.07;4.23;;;;;;;32.16;37.40;97863.06;5019833;28;20272;-74
2023/07/10 07:17:41;;;;;;;7.10;4.50;;;;;;;32.27;37.40;97875.50;5020216;28;20211;-73
2023/07/10 07:20:07;;;;;;;5.47;3.80;;;;;;;32.20;37.14;97874.97;5020078;28;20187;-73
2023/07/10 07:22:33;;;;;;;7.33;4.43;;;;;;;32.14;37.07;97876.91;5011448;28;20185;-72
2023/07/10 07:24:59;;;;;;;8.50;4.00;;;;;;;32.07;37.42;97891.84;5012829;28;20839;-74
2023/07/10 07:27:24;;;;;;;7.27;4.40;;;;;;;31.99;37.39;97904.88;5016526;28;20212;-74
2023/07/10 07:29:51;;;;;;;5.33;3.83;;;;;;;31.91;37.89;97902.72;5023918;28;20271;-71
2023/07/10 07:32:17;;;;;;;7.10;4.60;;;;;;;31.88;37.83;97906.00;5012079;28;20188;-74
2023/07/10 07:34:44;;;;;;;5.87;3.87;;;;;;;31.95;38.30;97898.38;5016228;28;20430;-73
2023/07/10 07:37:10;;;;;;;4.00;3.60;;;;;;;32.08;37.60;97907.00;5011469;28;20455;-73
2023/07/10 07:39:35;;;;;;;4.70;4.30;;;;;;;32.23;37.48;97912.38;5012136;28;20425;-73
2023/07/10 07:42:01;;;;;;;7.50;4.03;;;;;;;32.21;37.25;97909.13;5010171;28;20266;-73
2023/07/10 07:44:27;;;;;;;8.27;4.17;;;;;;;32.29;37.11;97916.72;5011182;28;20243;-73
2023/07/10 07:46:52;;;;;;;5.57;4.00;;;;;;;32.40;37.27;97916.66;5012231;28;20443;-72
2023/07/10 07:49:18;;;;;;;4.77;3.83;;;;;;;32.48;37.07;97908.78;5022952;28;20195;-72
2023/07/10 07:51:43;;;;;;;4.30;3.53;;;;;;;32.63;36.83;97921.47;5009793;28;20172;-71
2023/07/10 07:54:11;;;;;;;9.60;3.40;;;;;;;32.78;36.67;97917.00;5011235;28;20819;-72
2023/07/10 07:56:37;;;;;;;8.03;4.07;;;;;;;32.91;36.39;97905.56;5011230;28;20239;-71
2023/07/10 07:59:02;;;;;;;6.20;3.80;;;;;;;33.09;36.72;97906.00;5011794;28;20429;-71
2023/07/10 08:01:28;;;;;;;11.33;4.20;;;;;;;33.14;36.33;97897.81;5018008;28;20183;-72
2023/07/10 08:03:53;;;;;;;6.07;3.60;;;;;;;33.34;35.92;97896.84;5016018;28;20216;-72
2023/07/10 08:06:19;;;;;;;4.60;3.47;;;;;;;33.51;35.53;97891.00;5019508;28;20196;-72
2023/07/10 08:08:44;;;;;;;15.50;5.30;;;;;;;33.71;35.88;97891.91;5011466;28;20771;-72
2023/07/10 08:11:10;;;;;;;16.60;8.07;;;;;;;33.87;35.43;97880.88;5012148;28;20258;-72
2023/07/10 08:13:35;;;;;;;6.87;5.83;;;;;;;33.96;34.63;97879.94;5012057;28;20660;-72
2023/07/10 08:16:01;;;;;;;8.70;5.43;;;;;;;34.12;34.00;97886.03;5010298;28;20696;-72
2023/07/10 08:18:26;;;;;;;7.60;5.40;;;;;;;34.14;34.56;97886.56;5016426;28;20555;-72
2023/07/10 08:21:03;;;;;;;5.70;4.30;;;;;;;34.02;33.88;97878.00;5015879;28;20219;-71
2023/07/10 08:23:28;;;;;;;24.40;4.90;;;;;;;33.92;34.32;97883.53;5011097;28;20191;-74
2023/07/10 08:25:54;;;;;;;7.00;4.33;;;;;;;33.92;34.63;97881.66;5012302;28;20445;-72
2023/07/10 08:28:19;;;;;;;6.50;4.50;;;;;;;33.87;34.64;97881.66;5018980;28;20335;-72
2023/07/10 08:30:45;;;;;;;7.33;4.17;;;;;;;33.82;35.55;97884.47;5020664;28;20184;-71
2023/07/10 08:33:10;;;;;;;10.30;4.10;;;;;;;33.82;34.92;97885.25;5014406;28;20181;-72
2023/07/10 08:35:36;;;;;;;5.83;4.23;;;;;;;33.89;35.35;97893.09;5013790;28;20177;-71
2023/07/10 08:38:02;;;;;;;7.50;4.17;;;;;;;33.94;35.29;97876.75;5018204;28;20278;-73
2023/07/10 08:40:36;;;;;;;6.40;4.20;;;;;;;34.03;35.06;97885.03;5018478;28;20211;-72
2023/07/10 08:43:10;;;;;;;7.03;4.07;;;;;;;34.19;35.02;97896.56;5012944;28;20220;-72
2023/07/10 08:45:37;;;;;;;9.03;4.47;;;;;;;34.33;34.77;97890.41;5009133;28;20530;-72
2023/07/10 08:48:17;;;;;;;6.30;4.60;;;;;;;34.50;33.98;97889.94;5017237;28;20485;-72
2023/07/10 08:50:44;;;;;;;7.50;4.60;;;;;;;34.68;33.85;97886.41;5014001;28;20423;-73
2023/07/10 08:53:16;;;;;;;9.50;4.60;;;;;;;34.78;33.60;97887.38;5008418;28;20415;-72
2023/07/10 08:55:41;;;;;;;6.47;4.47;;;;;;;34.81;33.39;97887.59;5008592;28;20428;-71
2023/07/10 08:58:14;;;;;;;7.20;4.47;;;;;;;34.95;33.33;97895.84;5008323;28;20795;-73
2023/07/10 09:00:42;;;;;;;4.60;4.20;;;;;;;34.94;33.60;97896.94;4965854;28;20238;-73
2023/07/10 09:03:29;;;;;;;9.23;4.53;;;;;;;35.02;33.59;97892.75;5014630;28;20457;-73
2023/07/10 09:05:55;;;;;;;8.60;5.00;;;;;;;34.98;33.10;97897.16;5006692;28;20446;-71
2023/07/10 09:08:21;;;;;;;12.17;6.30;;;;;;;35.10;33.21;97894.00;5009361;28;20419;-71
2023/07/10 09:10:50;;;;;;;9.70;5.90;;;;;;;35.06;33.34;97894.56;5014278;28;20510;-72
2023/07/10 09:13:28;;;;;;;4.80;4.30;;;;;;;35.12;33.39;97895.31;5009361;28;20430;-72
2023/07/10 09:15:55;;;;;;;6.67;4.30;;;;;;;35.06;33.30;97900.03;5007942;28;20554;-73
2023/07/10 09:18:53;;;;;;;8.20;4.00;;;;;;;35.13;33.67;97899.66;5015093;28;20427;-73
2023/07/10 09:21:21;;;;;;;11.93;4.53;;;;;;;35.21;33.69;97895.44;5000625;28;20442;-73
2023/07/10 09:23:48;;;;;;;6.00;4.30;;;;;;;35.29;33.89;97902.13;5009272;28;20502;-74
2023/07/10 09:26:26;;;;;;;6.50;4.53;;;;;;;35.12;33.92;97900.75;5009417;28;20455;-74
2023/07/10 09:29:09;;;;;;;4.80;4.30;;;;;;;35.18;34.16;97910.47;5017520;28;20430;-72
2023/07/10 09:31:57;;;;;;;8.73;4.93;;;;;;;35.23;34.15;97909.56;5012097;28;20434;-73
2023/07/10 09:34:27;;;;;;;6.23;4.53;;;;;;;35.20;34.01;97902.00;5013836;28;20506;-72
2023/07/10 09:36:55;;;;;;;8.80;6.20;;;;;;;35.22;33.96;97891.63;5012221;28;20971;-71
2023/07/10 09:39:24;;;;;;;6.30;4.10;;;;;;;35.29;34.23;97899.41;5001081;28;20435;-73
2023/07/10 09:41:50;;;;;;;6.80;4.70;;;;;;;35.26;34.27;97903.53;5007910;28;20519;-72
2023/07/10 09:44:15;;;;;;;5.93;4.23;;;;;;;35.26;34.26;97898.09;5016469;28;20418;-73
2023/07/10 09:46:41;;;;;;;16.93;5.43;;;;;;;35.45;33.99;97889.06;5012342;28;20196;-72
2023/07/10 09:49:16;;;;;;;5.80;5.30;;;;;;;35.66;33.78;97900.41;5011492;28;20221;-72
2023/07/10 09:51:56;;;;;;;11.33;5.73;;;;;;;35.85;33.30;97892.16;5008324;28;20183;-73
2023/07/10 09:54:21;;;;;;;6.90;4.67;;;;;;;35.92;33.21;97892.56;5008211;28;20809;-73
2023/07/10 09:56:48;;;;;;;13.33;5.37;;;;;;;36.06;33.33;97886.31;5016752;28;20461;-73
2023/07/10 09:59:27;;;;;;;4.50;4.10;;;;;;;36.23;33.49;97891.19;5009406;28;20191;-72
2023/07/10 10:01:54;;;;;;;7.53;4.40;;;;;;;36.39;33.51;97881.53;5010028;28;20443;-72
2023/07/10 10:04:22;;;;;;;9.77;5.10;;;;;;;36.55;32.85;97870.31;5017194;28;20530;-72
2023/07/10 10:07:00;;;;;;;7.63;4.50;;;;;;;36.66;32.62;97881.81;5007690;28;20496;-72
2023/07/10 10:09:28;;;;;;;7.23;4.50;;;;;;;36.70;31.68;97880.06;5006005;28;20415;-72
2023/07/10 10:12:00;;;;;;;7.80;4.57;;;;;;;36.80;32.01;97874.38;5008775;28;20927;-72
2023/07/10 10:14:42;;;;;;;7.10;4.93;;;;;;;36.88;31.65;97875.56;5008962;28;20463;-73
2023/07/10 10:17:11;;;;;;;6.10;4.53;;;;;;;36.95;31.27;97878.72;5006414;28;20470;-72
2023/07/10 10:19:42;;;;;;;7.73;5.27;;;;;;;36.99;31.49;97865.25;5014971;28;20426;-72
2023/07/10 10:22:12;;;;;;;5.97;4.90;;;;;;;36.99;30.80;97870.69;5022063;28;20449;-73
2023/07/10 10:24:38;;;;;;;7.67;4.67;;;;;;;36.86;30.81;97864.16;5014991;28;20453;-73
2023/07/10 10:27:28;;;;;;;8.53;5.70;;;;;;;36.85;31.17;97871.53;5005794;28;20958;-72
2023/07/10 10:30:25;;;;;;;7.57;4.90;;;;;;;36.96;31.39;97874.03;5012518;28;20195;-71
2023/07/10 10:32:53;;;;;;;10.50;4.70;;;;;;;37.07;31.31;97869.94;5015262;28;20407;-72
2023/07/10 10:35:56;;;;;;;6.67;4.03;;;;;;;37.20;31.34;97869.06;5013678;28;20427;-72
2023/07/10 10:38:42;;;;;;;7.23;4.43;;;;;;;37.33;30.83;97867.38;5008635;28;20481;-73
2023/07/10 10:41:19;;;;;;;9.40;4.60;;;;;;;37.40;30.61;97868.84;5002425;28;20946;-73
2023/07/10 10:43:54;;;;;;;9.83;4.70;;;;;;;37.45;30.94;97866.81;5008657;28;20791;-74
2023/07/10 10:46:38;;;;;;;5.73;4.17;;;;;;;37.57;30.60;97870.91;5008471;28;20437;-71
2023/07/10 10:49:12;;;;;;;6.73;4.60;;;;;;;37.60;30.39;97871.09;5008059;28;20497;-73
2023/07/10 10:51:56;;;;;;;8.47;4.33;;;;;;;37.65;30.63;97868.22;5008209;28;20474;-74
2023/07/10 10:54:31;;;;;;;6.43;4.90;;;;;;;37.73;30.50;97869.38;5007358;28;20418;-74
2023/07/10 10:57:18;;;;;;;6.57;4.77;;;;;;;37.64;30.31;97871.25;5008871;28;20494;-74
2023/07/10 10:59:52;;;;;;;7.43;4.70;;;;;;;37.50;30.00;97861.22;5009991;28;20430;-73
2023/07/10 11:02:27;;;;;;;7.03;4.20;;;;;;;37.47;30.11;97861.06;5012422;28;20438;-73
2023/07/10 11:05:08;;;;;;;7.27;4.27;;;;;;;37.47;29.86;97853.66;5008195;28;20446;-72
2023/07/10 11:07:34;;;;;;;10.73;4.20;;;;;;;37.41;30.06;97863.13;5012656;28;20465;-72
2023/07/10 11:10:02;;;;;;;8.50;4.53;;;;;;;37.42;30.44;97852.97;5024142;28;20422;-72
2023/07/10 11:12:30;;;;;;;4.57;3.87;;;;;;;37.58;30.23;97847.91;5006760;28;20194;-73
2023/07/10 11:14:59;;;;;;;10.80;4.33;;;;;;;37.72;29.92;97851.34;5006958;28;20486;-73
2023/07/10 11:17:24;;;;;;;7.50;4.03;;;;;;;37.77;29.73;97845.75;5008434;28;21041;-73
2023/07/10 11:19:50;;;;;;;9.77;4.53;;;;;;;37.73;29.13;97841.22;5002643;28;20451;-73
2023/07/10 11:22:27;;;;;;;6.20;4.17;;;;;;;37.74;29.49;97826.44;5008103;28;20186;-73
2023/07/10 11:24:52;;;;;;;5.17;4.00;;;;;;;37.46;29.56;97827.44;5006945;28;20215;-73
2023/07/10 11:27:30;;;;;;;5.00;4.13;;;;;;;37.27;29.80;97821.38;5007776;28;20489;-73
2023/07/10 11:30:15;;;;;;;5.67;4.43;;;;;;;37.26;29.34;97823.31;5008162;28;20187;-73
2023/07/10 11:33:05;;;;;;;4.57;3.67;;;;;;;37.18;29.86;97822.13;5011892;28;20522;-72
2023/07/10 11:35:31;;;;;;;6.53;4.20;;;;;;;37.06;28.89;97819.16;5006354;28;20445;-71
2023/07/10 11:38:02;;;;;;;6.80;4.17;;;;;;;36.94;28.72;97818.94;5008084;28;20439;-72